Time;durP1;ratioP1;P1;durP2;ratioP2;P2;SDS_P1;SDS_P2;PMS_P1;PMS_P2;Temp;Humidity;BMP_temperature;BMP_pressure;BME280_temperature;BME280_humidity;BME280_pressure;Samples;Min_cycle;Max_cycle;Signal;HPM_P1;HPM_P2
2021/06/27 00:02:05;;;;;;;17.80;11.38;;;;;;;19.21;64.43;101431.66;5028793;28;20116;-73
2021/06/27 00:04:30;;;;;;;11.90;9.68;;;;;;;19.18;64.59;101432.03;5051105;28;20025;-72
2021/06/27 00:06:56;;;;;;;13.98;10.82;;;;;;;19.14;65.00;101435.28;5033719;28;20472;-72
2021/06/27 00:09:21;;;;;;;13.77;9.93;;;;;;;19.08;65.42;101438.66;5032467;28;20103;-73
2021/06/27 00:11:47;;;;;;;14.27;10.98;;;;;;;19.03;65.85;101434.03;5029689;28;20132;-72
2021/06/27 00:14:13;;;;;;;14.10;10.02;;;;;;;18.98;65.53;101431.97;5028301;28;20107;-73
2021/06/27 00:16:39;;;;;;;14.32;9.85;;;;;;;18.97;65.57;101435.63;5031043;28;20036;-72
2021/06/27 00:19:05;;;;;;;13.27;10.32;;;;;;;18.94;65.59;101430.75;5051211;28;20036;-72
2021/06/27 00:21:31;;;;;;;13.05;10.82;;;;;;;18.94;65.58;101433.38;5035961;28;20028;-72
2021/06/27 00:23:57;;;;;;;16.10;10.75;;;;;;;18.92;65.42;101424.88;5049186;28;20090;-72
2021/06/27 00:26:25;;;;;;;14.50;11.05;;;;;;;18.90;65.62;101423.47;5050749;28;20025;-72
2021/06/27 00:28:51;;;;;;;16.40;10.85;;;;;;;18.89;65.64;101424.44;5033144;28;20499;-73
2021/06/27 00:31:17;;;;;;;15.40;10.27;;;;;;;18.86;65.75;101423.03;5049318;28;20016;-73
2021/06/27 00:33:42;;;;;;;12.82;9.95;;;;;;;18.84;65.59;101422.44;5040554;28;20074;-73
2021/06/27 00:36:09;;;;;;;14.48;10.40;;;;;;;18.83;65.48;101424.22;5031764;28;20033;-72
2021/06/27 00:38:35;;;;;;;13.35;10.35;;;;;;;18.77;65.89;101419.72;5048286;28;20068;-72
2021/06/27 00:41:01;;;;;;;13.93;10.77;;;;;;;18.71;66.05;101425.75;5050064;28;20037;-72
2021/06/27 00:43:28;;;;;;;13.23;10.23;;;;;;;18.61;66.26;101426.13;5025442;28;20376;-73
2021/06/27 00:45:53;;;;;;;14.30;10.07;;;;;;;18.56;66.51;101417.22;5048349;28;20029;-72
2021/06/27 00:48:19;;;;;;;13.35;10.38;;;;;;;18.54;66.51;101422.66;5041781;28;20043;-72
2021/06/27 00:50:50;;;;;;;13.60;10.18;;;;;;;18.52;66.90;101422.03;5044798;28;20067;-72
2021/06/27 00:53:16;;;;;;;16.63;9.93;;;;;;;18.48;66.96;101421.59;5050595;28;20044;-72
2021/06/27 00:55:43;;;;;;;14.05;10.57;;;;;;;18.46;66.97;101420.19;5049269;28;20040;-72
2021/06/27 00:58:09;;;;;;;14.95;9.18;;;;;;;18.43;66.99;101418.75;5024228;28;20036;-72
2021/06/27 01:00:38;;;;;;;14.02;10.25;;;;;;;18.38;67.54;101422.94;5052026;28;20109;-73
2021/06/27 01:03:05;;;;;;;13.82;10.07;;;;;;;18.35;67.47;101421.53;5030970;28;20476;-72
2021/06/27 01:05:33;;;;;;;15.10;9.27;;;;;;;18.27;67.55;101412.00;5048924;28;20037;-72
2021/06/27 01:07:59;;;;;;;12.43;9.45;;;;;;;18.25;67.63;101411.38;5048444;28;20186;-73
2021/06/27 01:10:25;;;;;;;20.35;10.35;;;;;;;18.22;67.62;101414.38;5046144;28;20120;-73
2021/06/27 01:12:51;;;;;;;14.90;10.18;;;;;;;18.20;67.65;101413.75;5029966;28;20040;-72
2021/06/27 01:15:18;;;;;;;14.80;9.55;;;;;;;18.16;67.89;101417.78;5024182;28;20476;-72
2021/06/27 01:17:47;;;;;;;13.15;9.50;;;;;;;18.11;68.07;101421.97;5024793;28;20433;-72
2021/06/27 01:20:19;;;;;;;14.55;9.68;;;;;;;18.02;68.35;101424.72;5048005;28;20487;-72
2021/06/27 01:22:46;;;;;;;14.73;10.10;;;;;;;17.94;68.57;101416.19;5048999;28;20125;-72
2021/06/27 01:25:13;;;;;;;13.40;10.05;;;;;;;17.89;68.52;101422.81;5029206;28;20087;-72
2021/06/27 01:27:38;;;;;;;15.90;10.02;;;;;;;17.86;68.57;101423.19;5028892;28;20487;-72
2021/06/27 01:30:09;;;;;;;12.05;9.27;;;;;;;17.84;68.43;101417.31;5030394;28;20089;-72
2021/06/27 01:32:39;;;;;;;15.13;9.57;;;;;;;17.79;68.78;101418.84;5048989;28;20033;-72
2021/06/27 01:35:09;;;;;;;13.70;10.10;;;;;;;17.75;69.02;101412.38;5030691;28;20466;-72
2021/06/27 01:37:34;;;;;;;12.95;9.55;;;;;;;17.72;68.72;101416.16;5048147;28;20037;-72
2021/06/27 01:40:00;;;;;;;12.50;10.40;;;;;;;17.62;69.24;101418.28;5046523;28;20036;-72
2021/06/27 01:42:25;;;;;;;15.23;9.68;;;;;;;17.48;69.59;101420.00;5048860;28;20079;-72
2021/06/27 01:44:50;;;;;;;14.48;10.20;;;;;;;17.37;69.99;101413.41;5054615;28;20499;-72
2021/06/27 01:47:16;;;;;;;13.88;10.20;;;;;;;17.27;70.29;101418.13;5029366;28;20391;-72
2021/06/27 01:49:42;;;;;;;14.65;10.60;;;;;;;17.18;70.53;101422.69;5048094;28;20036;-72
2021/06/27 01:52:07;;;;;;;14.05;10.48;;;;;;;17.17;70.57;101422.88;5030405;28;20041;-72
2021/06/27 01:54:37;;;;;;;12.30;9.52;;;;;;;17.13;70.61;101419.81;5047036;28;20037;-72
2021/06/27 01:57:03;;;;;;;16.00;10.23;;;;;;;17.13;70.45;101419.81;5048082;28;20028;-73
2021/06/27 01:59:28;;;;;;;14.30;10.18;;;;;;;17.15;70.52;101419.63;5017267;28;20039;-72
2021/06/27 02:01:53;;;;;;;16.35;10.63;;;;;;;17.15;70.67;101422.25;5029775;28;20044;-73
2021/06/27 02:04:19;;;;;;;17.60;9.90;;;;;;;17.16;70.59;101424.69;5026809;28;20036;-72
2021/06/27 02:06:44;;;;;;;15.98;11.27;;;;;;;17.16;70.46;101418.59;5029378;28;20080;-72
2021/06/27 02:09:12;;;;;;;16.08;10.15;;;;;;;17.12;70.53;101420.78;5049033;28;20379;-73
2021/06/27 02:11:39;;;;;;;14.95;9.32;;;;;;;17.11;70.39;101425.22;5047202;28;20688;-73
2021/06/27 02:14:05;;;;;;;15.07;10.70;;;;;;;17.12;70.44;101420.78;5047568;28;20498;-72
2021/06/27 02:16:32;;;;;;;14.48;10.02;;;;;;;17.13;70.59;101422.44;5025670;28;20475;-71
2021/06/27 02:18:57;;;;;;;17.17;10.73;;;;;;;17.11;70.80;101424.41;5039250;28;20045;-72
2021/06/27 02:21:24;;;;;;;17.13;10.93;;;;;;;17.10;70.77;101425.41;5027378;28;20035;-72
2021/06/27 02:23:50;;;;;;;13.55;10.40;;;;;;;17.08;70.61;101428.22;5045001;28;20040;-72
2021/06/27 02:26:16;;;;;;;12.68;9.65;;;;;;;17.06;70.72;101435.44;5047669;28;20017;-72
2021/06/27 02:28:42;;;;;;;16.23;10.75;;;;;;;17.02;70.82;101428.13;5042431;28;20029;-73
2021/06/27 02:31:08;;;;;;;17.80;11.25;;;;;;;16.92;71.41;101426.59;5046128;28;20033;-72
2021/06/27 02:33:34;;;;;;;14.30;10.32;;;;;;;16.79;71.81;101420.38;5031346;28;20044;-72
2021/06/27 02:36:00;;;;;;;17.77;9.95;;;;;;;16.74;71.67;101418.28;5024205;28;20503;-72
2021/06/27 02:38:26;;;;;;;14.68;10.10;;;;;;;16.67;71.66;101422.59;5035996;28;20405;-72
2021/06/27 02:40:54;;;;;;;14.43;9.85;;;;;;;16.55;72.25;101424.88;5028802;28;20037;-72
2021/06/27 02:43:19;;;;;;;16.30;9.45;;;;;;;16.41;72.29;101418.66;5011400;28;20025;-72
2021/06/27 02:45:46;;;;;;;14.30;9.57;;;;;;;16.32;72.46;101414.50;5021876;28;20586;-73
2021/06/27 02:48:11;;;;;;;14.85;10.02;;;;;;;16.26;72.76;101407.38;5053039;28;20061;-72
2021/06/27 02:50:38;;;;;;;15.45;10.60;;;;;;;16.25;72.60;101401.28;5043810;28;20071;-72
2021/06/27 02:53:05;;;;;;;14.07;10.73;;;;;;;16.23;72.66;101405.91;5029797;28;20025;-73
2021/06/27 02:55:31;;;;;;;14.02;10.05;;;;;;;16.24;72.60;101397.06;5029745;28;20021;-72
2021/06/27 02:57:56;;;;;;;16.65;10.05;;;;;;;16.27;72.71;101388.03;5025890;28;20398;-72
2021/06/27 03:00:22;;;;;;;14.02;9.82;;;;;;;16.30;72.65;101390.31;5044257;28;20056;-73
2021/06/27 03:02:47;;;;;;;15.95;11.25;;;;;;;16.33;72.75;101392.53;5027265;28;20032;-73
2021/06/27 03:05:14;;;;;;;13.60;10.00;;;;;;;16.35;72.68;101383.53;5051408;28;20108;-73
2021/06/27 03:07:41;;;;;;;15.20;11.13;;;;;;;16.38;72.38;101392.03;5048959;28;20556;-73
2021/06/27 03:10:11;;;;;;;17.00;10.52;;;;;;;16.40;72.44;101393.47;5034213;28;20029;-72
2021/06/27 03:12:37;;;;;;;18.08;11.50;;;;;;;16.41;72.38;101391.69;5051434;28;20045;-72
2021/06/27 03:15:05;;;;;;;16.17;10.98;;;;;;;16.40;72.48;101396.06;5036775;28;20462;-73
2021/06/27 03:17:30;;;;;;;16.73;11.15;;;;;;;16.40;72.56;101392.66;5023325;28;20169;-72
2021/06/27 03:19:56;;;;;;;18.58;10.63;;;;;;;16.40;72.34;101393.47;5032881;28;20422;-73
2021/06/27 03:22:21;;;;;;;17.80;11.32;;;;;;;16.41;72.31;101396.91;5016829;28;20076;-72
2021/06/27 03:24:47;;;;;;;14.93;11.55;;;;;;;16.41;72.35;101400.34;5047685;28;20399;-73
2021/06/27 03:27:12;;;;;;;15.57;11.20;;;;;;;16.43;72.51;101400.16;5021557;28;20033;-73
2021/06/27 03:29:38;;;;;;;17.25;11.00;;;;;;;16.43;72.71;101394.91;5051218;28;20032;-72
2021/06/27 03:32:04;;;;;;;16.50;11.90;;;;;;;16.45;72.66;101387.69;5050044;28;20302;-72
2021/06/27 03:34:29;;;;;;;15.45;10.63;;;;;;;16.45;72.55;101383.28;5050704;28;20104;-73
2021/06/27 03:36:55;;;;;;;14.98;11.18;;;;;;;16.47;72.71;101385.72;5033604;28;20052;-72
2021/06/27 03:39:21;;;;;;;14.63;10.90;;;;;;;16.48;72.60;101396.00;5032222;28;20024;-72
2021/06/27 03:41:51;;;;;;;15.90;10.60;;;;;;;16.50;72.59;101401.88;5032429;28;20483;-73
2021/06/27 03:44:17;;;;;;;14.32;10.40;;;;;;;16.50;73.02;101399.25;5033414;28;20075;-72
2021/06/27 03:46:42;;;;;;;17.00;12.55;;;;;;;16.50;73.16;101396.63;5033620;28;20064;-73
2021/06/27 03:49:08;;;;;;;19.17;11.10;;;;;;;16.50;73.67;101406.28;5050600;28;20462;-73
2021/06/27 03:51:33;;;;;;;15.07;10.60;;;;;;;16.50;73.30;101406.28;5050476;28;20284;-73
2021/06/27 03:53:59;;;;;;;22.48;11.55;;;;;;;16.53;73.35;101404.09;5032702;28;20033;-72
2021/06/27 03:56:25;;;;;;;15.98;11.93;;;;;;;16.53;73.57;101400.69;5031145;28;20090;-72
2021/06/27 03:58:54;;;;;;;18.70;12.07;;;;;;;16.45;74.45;101398.16;5048829;28;20101;-72
2021/06/27 04:01:20;;;;;;;20.35;13.40;;;;;;;16.34;74.83;101386.34;5053235;28;20033;-73
2021/06/27 04:03:46;;;;;;;16.98;10.48;;;;;;;16.31;74.82;101368.38;5047079;28;20041;-72
2021/06/27 04:06:11;;;;;;;17.20;9.80;;;;;;;16.30;74.71;101364.13;5049715;28;20028;-73
2021/06/27 04:08:37;;;;;;;15.45;11.27;;;;;;;16.26;74.99;101375.97;5049054;28;20360;-72
2021/06/27 04:11:02;;;;;;;15.65;10.30;;;;;;;16.26;74.97;101379.38;5048856;28;20056;-73
2021/06/27 04:13:30;;;;;;;15.77;10.70;;;;;;;16.29;75.02;101384.28;5049933;28;20039;-73
2021/06/27 04:15:57;;;;;;;14.35;9.10;;;;;;;16.37;74.42;101393.00;5029937;28;20033;-72
2021/06/27 04:18:23;;;;;;;16.38;11.07;;;;;;;16.45;74.16;101392.94;5048930;28;20029;-72
2021/06/27 04:20:49;;;;;;;15.05;10.70;;;;;;;16.52;73.91;101389.41;5031957;28;20067;-72
2021/06/27 04:23:15;;;;;;;16.35;11.30;;;;;;;16.57;73.83;101385.44;5030207;28;20029;-73
2021/06/27 04:25:41;;;;;;;17.45;10.70;;;;;;;16.60;73.79;101380.66;5048948;28;20033;-72
2021/06/27 04:28:07;;;;;;;17.67;11.30;;;;;;;16.65;73.63;101383.53;5030807;28;20037;-72
2021/06/27 04:30:34;;;;;;;13.05;10.02;;;;;;;16.69;73.39;101374.31;5049447;28;20040;-72
2021/06/27 04:33:00;;;;;;;16.38;11.73;;;;;;;16.72;73.46;101375.75;5014861;28;20136;-72
2021/06/27 04:35:25;;;;;;;21.08;11.55;;;;;;;16.75;73.38;101370.16;5044644;28;20108;-73
2021/06/27 04:37:51;;;;;;;16.10;12.00;;;;;;;16.78;73.17;101367.16;5046281;28;20032;-72
2021/06/27 04:40:17;;;;;;;14.48;10.63;;;;;;;16.81;73.29;101360.75;5049043;28;20522;-73
2021/06/27 04:42:42;;;;;;;15.63;10.73;;;;;;;16.84;73.56;101371.72;5014951;28;20515;-73
2021/06/27 04:45:08;;;;;;;16.33;11.75;;;;;;;16.87;73.58;101362.66;5049893;28;20159;-73
2021/06/27 04:47:35;;;;;;;16.52;11.45;;;;;;;16.91;73.64;101358.69;5048323;28;20545;-73
2021/06/27 04:50:02;;;;;;;18.38;11.25;;;;;;;16.95;73.60;101361.75;5022537;28;20330;-73
2021/06/27 04:52:28;;;;;;;17.98;11.20;;;;;;;16.98;73.38;101354.34;5025645;28;20123;-73
2021/06/27 04:54:53;;;;;;;19.63;12.40;;;;;;;17.07;72.76;101349.81;5057896;28;20115;-73
2021/06/27 04:57:19;;;;;;;15.90;11.93;;;;;;;17.08;73.04;101357.50;5030366;28;20024;-73
2021/06/27 04:59:44;;;;;;;14.00;10.75;;;;;;;17.11;72.75;101348.44;5030663;28;20024;-72
2021/06/27 05:02:10;;;;;;;14.60;10.80;;;;;;;17.17;72.50;101349.50;5034453;28;20033;-73
2021/06/27 05:04:35;;;;;;;14.95;11.32;;;;;;;17.20;72.74;101344.69;5032019;28;20043;-72
2021/06/27 05:07:01;;;;;;;15.52;10.98;;;;;;;17.27;72.40;101347.38;5038358;28;20032;-73
2021/06/27 05:09:26;;;;;;;14.77;10.90;;;;;;;17.33;72.02;101338.78;5048346;28;20067;-72
2021/06/27 05:11:51;;;;;;;13.90;10.63;;;;;;;17.40;72.42;101339.63;5030485;28;20033;-72
2021/06/27 05:14:17;;;;;;;22.67;13.57;;;;;;;17.52;72.90;101334.72;5047889;28;20024;-73
2021/06/27 05:16:42;;;;;;;18.00;11.90;;;;;;;17.52;73.02;101321.59;5057128;28;20427;-73
2021/06/27 05:19:08;;;;;;;19.52;13.63;;;;;;;17.55;73.03;101329.06;5046758;28;20033;-72
2021/06/27 05:21:34;;;;;;;19.25;12.93;;;;;;;17.56;73.00;101328.09;5050858;28;20501;-73
2021/06/27 05:23:59;;;;;;;18.83;13.13;;;;;;;17.64;73.34;101330.56;5042580;28;20033;-72
2021/06/27 05:26:24;;;;;;;14.95;11.18;;;;;;;17.68;73.20;101328.38;5045895;28;20503;-72
2021/06/27 05:28:50;;;;;;;15.10;10.73;;;;;;;17.74;72.98;101332.06;5035596;28;20132;-73
2021/06/27 05:31:15;;;;;;;15.93;10.32;;;;;;;17.83;72.75;101328.28;5031211;28;20063;-72
2021/06/27 05:33:41;;;;;;;16.00;10.25;;;;;;;17.92;72.49;101327.19;5048604;28;20510;-72
2021/06/27 05:36:06;;;;;;;14.25;10.10;;;;;;;18.06;71.97;101330.69;5040039;28;20029;-72
2021/06/27 05:38:32;;;;;;;15.50;11.35;;;;;;;18.19;71.16;101328.13;5047506;28;20068;-70
2021/06/27 05:40:58;;;;;;;16.88;9.90;;;;;;;18.39;70.90;101328.25;5047381;28;20485;-70
2021/06/27 05:43:23;;;;;;;13.50;9.40;;;;;;;18.65;70.05;101330.19;5030574;28;20048;-70
2021/06/27 05:45:48;;;;;;;14.65;10.48;;;;;;;18.94;68.06;101325.63;5029233;28;20161;-70
2021/06/27 05:48:14;;;;;;;21.17;11.48;;;;;;;19.12;67.55;101327.72;5020183;28;20312;-70
2021/06/27 05:50:39;;;;;;;17.20;11.30;;;;;;;19.26;66.68;101328.53;5030476;28;20406;-70
2021/06/27 05:53:05;;;;;;;12.50;8.88;;;;;;;19.51;66.09;101333.19;5039309;28;20037;-70
2021/06/27 05:55:31;;;;;;;11.57;9.55;;;;;;;19.77;65.42;101324.50;5048005;28;20024;-70
2021/06/27 05:57:56;;;;;;;15.43;9.82;;;;;;;20.05;64.18;101332.16;5030152;28;20024;-70
2021/06/27 06:00:22;;;;;;;13.45;9.98;;;;;;;20.33;63.07;101329.25;5046976;28;20522;-70
2021/06/27 06:02:47;;;;;;;13.55;10.18;;;;;;;20.63;62.47;101334.03;5030209;28;20052;-70
2021/06/27 06:05:13;;;;;;;13.02;9.38;;;;;;;20.88;62.06;101328.03;5034649;28;20032;-70
2021/06/27 06:07:38;;;;;;;13.80;9.57;;;;;;;21.18;60.69;101318.50;5039007;28;20035;-70
2021/06/27 06:10:05;;;;;;;12.80;9.68;;;;;;;21.50;60.10;101323.75;5027353;28;20048;-69
2021/06/27 06:12:30;;;;;;;13.55;9.27;;;;;;;21.78;57.82;101314.59;5048358;28;20060;-70
2021/06/27 06:14:56;;;;;;;12.93;8.38;;;;;;;22.07;57.36;101315.69;5046579;28;20658;-70
2021/06/27 06:17:21;;;;;;;14.63;10.20;;;;;;;22.29;57.00;101324.00;5048051;28;20032;-70
2021/06/27 06:19:51;;;;;;;13.32;10.43;;;;;;;22.31;55.85;101321.16;5044747;28;20037;-70
2021/06/27 06:22:17;;;;;;;10.65;8.80;;;;;;;22.55;54.45;101319.44;5029177;28;20048;-70
2021/06/27 06:24:43;;;;;;;10.35;8.05;;;;;;;22.90;54.17;101322.19;5030000;28;20041;-70
2021/06/27 06:27:08;;;;;;;10.88;8.40;;;;;;;23.30;53.66;101319.00;5036928;28;20033;-69
2021/06/27 06:29:34;;;;;;;14.10;9.13;;;;;;;23.41;51.97;101327.97;5028839;28;20037;-70
2021/06/27 06:31:59;;;;;;;13.07;8.93;;;;;;;23.38;51.67;101330.28;5046125;28;20033;-69
2021/06/27 06:34:24;;;;;;;11.32;8.75;;;;;;;23.16;52.71;101322.06;5046245;28;20040;-70
2021/06/27 06:36:50;;;;;;;14.90;8.55;;;;;;;23.37;52.28;101326.00;5033300;28;20414;-70
2021/06/27 06:39:15;;;;;;;12.75;9.52;;;;;;;23.36;53.01;101330.50;5034844;28;20037;-70
2021/06/27 06:41:41;;;;;;;13.20;8.43;;;;;;;23.65;52.88;101326.13;5049855;28;20039;-70
2021/06/27 06:44:06;;;;;;;15.05;9.52;;;;;;;23.74;52.79;101315.22;5050875;28;20033;-70
2021/06/27 06:46:32;;;;;;;11.77;8.48;;;;;;;24.00;52.47;101327.19;5033562;28;20036;-70
2021/06/27 06:48:57;;;;;;;12.15;7.75;;;;;;;24.17;51.37;101322.78;5050391;28;20124;-70
2021/06/27 06:51:24;;;;;;;10.00;8.07;;;;;;;24.29;51.61;101322.75;5045551;28;20056;-69
2021/06/27 06:53:49;;;;;;;13.32;8.07;;;;;;;24.39;51.53;101333.56;5027595;28;20508;-70
2021/06/27 06:56:14;;;;;;;11.25;8.38;;;;;;;24.44;50.23;101325.69;5029256;28;20060;-70
2021/06/27 06:58:40;;;;;;;11.05;8.45;;;;;;;24.52;51.49;101323.72;5030024;28;20036;-70
2021/06/27 07:01:06;;;;;;;10.93;8.18;;;;;;;24.69;51.28;101324.56;5027342;28;20032;-70
2021/06/27 07:03:31;;;;;;;12.32;7.80;;;;;;;25.06;50.00;101332.13;5025766;28;20159;-70
2021/06/27 07:05:59;;;;;;;13.75;7.75;;;;;;;25.06;49.21;101326.81;5050544;28;20033;-69
2021/06/27 07:08:28;;;;;;;8.98;7.47;;;;;;;25.45;48.85;101327.72;5051043;28;20604;-70
2021/06/27 07:10:54;;;;;;;9.85;6.80;;;;;;;25.93;48.34;101324.69;5033703;28;20047;-70
2021/06/27 07:13:20;;;;;;;9.75;7.28;;;;;;;26.49;47.22;101319.22;5046229;28;20379;-70
2021/06/27 07:15:46;;;;;;;10.00;8.25;;;;;;;26.50;45.25;101315.50;5026088;28;20092;-69
2021/06/27 07:18:11;;;;;;;13.43;8.00;;;;;;;26.51;46.38;101309.16;5049810;28;20036;-70
2021/06/27 07:20:37;;;;;;;11.88;8.00;;;;;;;26.48;45.39;101314.97;5051068;28;20037;-69
2021/06/27 07:23:02;;;;;;;8.95;7.45;;;;;;;26.59;45.21;101317.50;5028783;28;20288;-70
2021/06/27 07:25:28;;;;;;;11.13;7.88;;;;;;;26.59;43.91;101312.19;5031230;28;20537;-69
2021/06/27 07:27:53;;;;;;;7.38;6.63;;;;;;;26.73;44.92;101303.78;5048704;28;20044;-70
2021/06/27 07:30:19;;;;;;;12.18;7.68;;;;;;;26.56;44.44;101314.50;5032117;28;20414;-69
2021/06/27 07:32:45;;;;;;;12.98;8.15;;;;;;;26.46;44.69;101319.72;5049034;28;20146;-70
2021/06/27 07:35:11;;;;;;;11.13;7.90;;;;;;;26.17;45.20;101320.75;5050767;28;20065;-70
2021/06/27 07:37:37;;;;;;;9.57;7.70;;;;;;;26.21;45.76;101321.03;5032644;28;20068;-70
2021/06/27 07:40:03;;;;;;;10.77;7.07;;;;;;;26.17;45.12;101323.41;5047757;28;20112;-70
2021/06/27 07:42:28;;;;;;;8.60;6.68;;;;;;;26.22;45.17;101320.00;5042838;28;20033;-70
2021/06/27 07:44:54;;;;;;;10.18;7.65;;;;;;;26.34;45.29;101311.91;5049230;28;20598;-69
2021/06/27 07:47:19;;;;;;;9.82;7.10;;;;;;;26.83;44.31;101309.22;5049316;28;20036;-70
2021/06/27 07:49:45;;;;;;;11.18;7.35;;;;;;;26.98;43.13;101316.53;5030834;28;20041;-69
2021/06/27 07:52:11;;;;;;;8.10;6.35;;;;;;;27.12;43.32;101308.91;5049557;28;20028;-69
2021/06/27 07:54:37;;;;;;;10.27;7.00;;;;;;;27.28;43.79;101308.00;5033961;28;20029;-70
2021/06/27 07:57:03;;;;;;;9.38;7.22;;;;;;;27.41;42.83;101312.09;5030332;28;20028;-70
2021/06/27 07:59:29;;;;;;;9.77;8.00;;;;;;;27.73;41.99;101314.66;5026377;28;20860;-69
2021/06/27 08:01:54;;;;;;;10.32;7.78;;;;;;;27.54;41.93;101308.97;5023098;28;20128;-70
2021/06/27 08:04:20;;;;;;;11.57;7.35;;;;;;;27.87;42.60;101307.00;5049764;28;20102;-70
2021/06/27 08:06:45;;;;;;;8.52;7.30;;;;;;;28.00;41.29;101312.94;5034827;28;20330;-70
2021/06/27 08:09:11;;;;;;;10.40;7.18;;;;;;;27.84;41.77;101310.19;5026629;28;20033;-70
2021/06/27 08:11:36;;;;;;;11.57;8.15;;;;;;;27.61;41.67;101303.41;5029447;28;20458;-69
2021/06/27 08:14:02;;;;;;;10.48;6.63;;;;;;;27.66;42.49;101305.31;5049897;28;20040;-70
2021/06/27 08:16:27;;;;;;;11.27;8.52;;;;;;;27.50;42.85;101289.25;5026709;28;20149;-70
2021/06/27 08:18:53;;;;;;;14.88;8.13;;;;;;;27.41;43.63;101296.13;5049412;28;20495;-70
2021/06/27 08:21:20;;;;;;;11.55;7.55;;;;;;;27.68;44.20;101297.84;5046860;28;20041;-70
2021/06/27 08:23:45;;;;;;;10.82;8.27;;;;;;;27.58;42.03;101299.41;5030965;28;20165;-69
2021/06/27 08:26:11;;;;;;;10.75;7.35;;;;;;;27.47;42.81;101297.75;5048419;28;20028;-70
2021/06/27 08:28:37;;;;;;;8.63;6.95;;;;;;;27.61;42.33;101295.41;5048702;28;20040;-69
2021/06/27 08:31:02;;;;;;;9.45;7.95;;;;;;;27.50;42.11;101299.06;5026977;28;20069;-69
2021/06/27 08:33:28;;;;;;;9.15;7.68;;;;;;;27.38;43.71;101294.75;5018043;28;20028;-70
2021/06/27 08:35:53;;;;;;;8.98;6.82;;;;;;;27.41;43.99;101296.13;5043499;28;20373;-70
2021/06/27 08:38:18;;;;;;;8.98;7.40;;;;;;;27.58;44.92;101294.06;5049516;28;20505;-70
2021/06/27 08:40:44;;;;;;;9.18;6.20;;;;;;;27.79;44.11;101288.84;5049698;28;20319;-70
2021/06/27 08:43:11;;;;;;;8.60;6.95;;;;;;;28.04;43.05;101296.16;5028281;28;20415;-70
2021/06/27 08:45:51;;;;;;;8.13;6.78;;;;;;;28.07;41.42;101290.31;5048714;28;20048;-70
2021/06/27 08:48:20;;;;;;;9.18;6.53;;;;;;;27.94;43.28;101293.47;5030236;28;20067;-70
2021/06/27 08:50:47;;;;;;;10.75;6.35;;;;;;;27.97;43.86;101287.59;5028638;28;20124;-70
2021/06/27 08:53:13;;;;;;;9.02;6.68;;;;;;;28.12;43.03;101292.19;5044737;28;20040;-70
2021/06/27 08:55:38;;;;;;;10.20;6.00;;;;;;;28.31;42.13;101297.84;5031431;28;20017;-70
2021/06/27 08:58:03;;;;;;;8.15;6.68;;;;;;;28.32;43.06;101284.25;5041979;28;20122;-70
2021/06/27 09:00:29;;;;;;;8.00;7.20;;;;;;;28.39;43.38;101284.00;5036572;28;20171;-70
2021/06/27 09:02:54;;;;;;;10.13;6.63;;;;;;;28.58;42.14;101287.00;5031540;28;20041;-69
2021/06/27 09:05:21;;;;;;;7.13;6.38;;;;;;;28.87;41.02;101284.59;5002815;28;20372;-70
2021/06/27 09:07:49;;;;;;;9.32;6.80;;;;;;;29.05;39.84;101277.91;5039282;28;20047;-69
2021/06/27 09:10:14;;;;;;;6.55;5.40;;;;;;;28.91;39.91;101285.69;5036768;28;20043;-70
2021/06/27 09:12:47;;;;;;;9.07;6.78;;;;;;;28.84;41.09;101276.31;5036431;28;20040;-71
2021/06/27 09:15:14;;;;;;;17.92;7.18;;;;;;;29.10;41.17;101283.25;5002495;28;20033;-70
2021/06/27 09:17:42;;;;;;;9.50;7.07;;;;;;;28.96;38.36;101276.88;5020736;28;20025;-69
2021/06/27 09:20:14;;;;;;;9.82;6.55;;;;;;;29.07;39.13;101283.78;5049296;28;21913;-70
2021/06/27 09:22:51;;;;;;;6.25;5.65;;;;;;;28.98;38.67;101277.38;5037681;28;20514;-69
2021/06/27 09:25:20;;;;;;;5.90;5.30;;;;;;;29.03;39.21;101268.59;5032373;28;20078;-70
2021/06/27 09:28:03;;;;;;;11.25;6.15;;;;;;;29.10;40.64;101266.44;5026867;28;20071;-70
2021/06/27 09:30:31;;;;;;;10.52;7.05;;;;;;;29.19;38.95;101272.06;5038878;28;20044;-70
2021/06/27 09:33:19;;;;;;;6.38;5.00;;;;;;;29.72;39.04;101271.63;5040911;28;20525;-70
2021/06/27 09:35:48;;;;;;;7.68;6.57;;;;;;;29.72;38.24;101258.28;5044859;28;20033;-70
2021/06/27 09:38:20;;;;;;;7.45;6.68;;;;;;;29.33;37.03;101256.28;5048411;28;20100;-69
2021/06/27 09:40:49;;;;;;;8.60;6.38;;;;;;;29.36;39.00;101253.06;5045645;28;20037;-70
2021/06/27 09:43:14;;;;;;;8.30;6.60;;;;;;;29.49;37.79;101255.16;5048771;28;20075;-69
2021/06/27 09:45:48;;;;;;;9.57;6.03;;;;;;;29.61;38.63;101249.50;5038934;28;20163;-70
2021/06/27 09:48:14;;;;;;;9.05;6.57;;;;;;;29.85;40.55;101242.47;5043582;28;20037;-71
2021/06/27 09:50:40;;;;;;;8.77;6.43;;;;;;;29.97;38.20;101244.84;5042265;28;20029;-70
2021/06/27 09:53:05;;;;;;;7.07;5.50;;;;;;;30.02;37.72;101239.44;5044143;28;20041;-70
2021/06/27 09:55:30;;;;;;;7.05;6.32;;;;;;;30.03;37.64;101235.72;5039452;28;20032;-70
2021/06/27 09:58:15;;;;;;;7.47;5.97;;;;;;;30.00;38.09;101230.13;5042633;28;20036;-71
2021/06/27 10:00:41;;;;;;;7.18;5.53;;;;;;;30.05;38.49;101222.06;5023511;28;20400;-70
2021/06/27 10:03:08;;;;;;;8.18;5.60;;;;;;;30.11;38.23;101222.84;5044445;28;20040;-69
2021/06/27 10:05:34;;;;;;;6.07;4.97;;;;;;;30.17;38.02;101222.50;5042458;28;20660;-71
2021/06/27 10:08:00;;;;;;;10.68;6.03;;;;;;;30.33;36.54;101215.22;5042111;28;20036;-70
2021/06/27 10:10:26;;;;;;;5.60;4.90;;;;;;;30.10;36.36;101211.31;5043139;28;20527;-70
2021/06/27 10:12:52;;;;;;;6.18;5.57;;;;;;;30.22;37.09;101219.81;5024703;28;20063;-70
2021/06/27 10:15:17;;;;;;;7.15;5.07;;;;;;;30.08;36.35;101210.81;5016191;28;20037;-69
2021/06/27 10:17:46;;;;;;;8.13;4.95;;;;;;;30.06;36.67;101215.63;5014914;28;20033;-70
2021/06/27 10:20:13;;;;;;;7.57;5.40;;;;;;;29.87;36.55;101213.59;5007194;28;20029;-70
2021/06/27 10:22:40;;;;;;;7.60;4.88;;;;;;;30.22;37.11;101205.66;5043296;28;20042;-70
2021/06/27 10:25:10;;;;;;;5.72;5.13;;;;;;;30.40;36.78;101199.66;5037455;28;20087;-70
2021/06/27 10:27:36;;;;;;;5.95;5.07;;;;;;;30.08;36.00;101195.59;5045225;28;20029;-70
2021/06/27 10:30:06;;;;;;;7.32;5.25;;;;;;;30.22;36.19;101195.75;5038900;28;20017;-70
2021/06/27 10:32:31;;;;;;;5.20;4.47;;;;;;;30.43;36.66;101192.94;5027167;28;20204;-71
2021/06/27 10:34:58;;;;;;;5.70;5.05;;;;;;;30.71;35.04;101190.56;5022855;28;20052;-70
2021/06/27 10:37:35;;;;;;;5.70;5.20;;;;;;;30.43;35.30;101188.38;5034245;28;20048;-70
2021/06/27 10:40:06;;;;;;;10.20;4.68;;;;;;;30.60;35.31;101187.97;5038073;28;20057;-70
2021/06/27 10:43:00;;;;;;;6.70;4.47;;;;;;;30.74;35.26;101177.44;5016388;28;20037;-70
2021/06/27 10:45:49;;;;;;;5.32;4.80;;;;;;;30.82;35.02;101187.50;5032230;28;20037;-71
2021/06/27 10:48:41;;;;;;;7.28;4.60;;;;;;;30.89;33.99;101179.13;5032660;28;20045;-70
2021/06/27 10:51:09;;;;;;;5.53;4.72;;;;;;;30.59;33.93;101181.03;5033842;28;20128;-70
2021/06/27 10:54:12;;;;;;;6.78;5.50;;;;;;;30.92;34.94;101172.44;5034302;28;20044;-70
2021/06/27 10:56:59;;;;;;;;;;;;;;;30.74;33.36;101176.59;5032045;28;20029;-69
2021/06/27 10:59:39;;;;;;;4.38;3.95;;;;;;;30.42;32.36;101173.44;5033492;28;19920;-70
2021/06/27 11:02:19;;;;;;;9.70;4.38;;;;;;;30.51;32.91;101178.16;5028132;28;20114;-70
2021/06/27 11:04:45;;;;;;;6.20;3.63;;;;;;;30.64;32.47;101177.50;5033899;28;20507;-70
2021/06/27 11:07:33;;;;;;;5.93;4.10;;;;;;;30.66;31.45;101178.81;5025736;28;20965;-71
2021/06/27 11:10:17;;;;;;;6.78;4.75;;;;;;;30.56;33.50;101172.78;5040167;28;20040;-70
2021/06/27 11:12:55;;;;;;;5.18;4.28;;;;;;;30.58;32.66;101170.63;5028198;28;20024;-70
2021/06/27 11:15:25;;;;;;;4.35;3.95;;;;;;;30.51;33.38;101176.28;5031851;28;20033;-70
2021/06/27 11:17:52;;;;;;;4.68;4.07;;;;;;;30.83;33.68;101170.34;5041031;28;20515;-70